createdAt,value
2016-05-26T00:00:44.277Z,0
2016-05-26T00:01:44.529Z,0
2016-05-26T00:02:44.314Z,0
2016-05-26T00:03:44.316Z,0
2016-05-26T00:04:44.507Z,0
2016-05-26T00:05:44.353Z,0
2016-05-26T00:06:44.418Z,0
2016-05-26T00:07:44.577Z,0
2016-05-26T00:08:44.595Z,0
2016-05-26T00:09:44.301Z,0
2016-05-26T00:10:44.631Z,0
2016-05-26T00:11:44.666Z,0
2016-05-26T00:12:44.699Z,0
2016-05-26T00:13:44.686Z,0
2016-05-26T00:14:44.737Z,0
2016-05-26T00:15:44.755Z,0
2016-05-26T00:16:44.773Z,0
2016-05-26T00:17:45.338Z,0
2016-05-26T00:18:44.810Z,0
2016-05-26T00:19:44.688Z,0
2016-05-26T00:20:44.878Z,0
2016-05-26T00:21:44.896Z,0
2016-05-26T00:22:44.758Z,0
2016-05-26T00:23:44.949Z,0
2016-05-26T00:24:44.841Z,0
2016-05-26T00:25:45.063Z,0
2016-05-26T00:26:45.003Z,0
2016-05-26T00:27:44.881Z,0
2016-05-26T00:28:45.055Z,0
2016-05-26T00:29:45.104Z,0
2016-05-26T00:30:45.107Z,0
2016-05-26T00:31:44.970Z,0
2016-05-26T00:32:46.034Z,0
2016-05-26T00:33:45.162Z,0
2016-05-26T00:34:45.228Z,0
2016-05-26T00:35:45.059Z,0
2016-05-26T00:36:44.937Z,0
2016-05-26T00:37:45.268Z,0
2016-05-26T00:38:45.301Z,0
2016-05-26T00:39:45.304Z,0
2016-05-26T00:40:45.337Z,0
2016-05-26T00:41:45.215Z,0
2016-05-26T00:42:45.390Z,0
2016-05-26T00:43:45.408Z,0
2016-05-26T00:44:45.270Z,0
2016-05-26T00:45:45.491Z,0
2016-05-26T00:46:45.322Z,0
2016-05-26T00:47:45.403Z,0
2016-05-26T00:48:45.531Z,0
2016-05-26T00:49:45.533Z,0
2016-05-26T00:50:45.583Z,0
2016-05-26T00:51:45.602Z,0
2016-05-26T00:52:45.635Z,0
2016-05-26T00:53:45.482Z,0
2016-05-26T00:54:45.641Z,0
2016-05-26T00:55:45.518Z,0
2016-05-26T00:56:45.709Z,0
2016-05-26T00:57:45.712Z,0
2016-05-26T00:58:45.746Z,0
2016-05-26T00:59:45.623Z,0
2016-05-26T01:00:45.798Z,0
2016-05-26T01:01:45.816Z,0
2016-05-26T01:02:45.881Z,0
2016-05-26T01:03:45.868Z,0
2016-05-26T01:04:45.887Z,0
2016-05-26T01:05:45.921Z,0
2016-05-26T01:06:45.923Z,0
2016-05-26T01:07:45.957Z,0
2016-05-26T01:08:45.819Z,0
2016-05-26T01:09:45.869Z,0
2016-05-26T01:10:46.028Z,0
2016-05-26T01:11:45.889Z,0
2016-05-26T01:12:46.065Z,0
2016-05-26T01:13:46.098Z,0
2016-05-26T01:14:46.116Z,0
2016-05-26T01:15:46.135Z,0
2016-05-26T01:16:46.169Z,0
2016-05-26T01:17:46.797Z,0
2016-05-26T01:18:46.049Z,0
2016-05-26T01:19:46.224Z,0
2016-05-26T01:20:46.258Z,0
2016-05-26T01:21:46.120Z,0
2016-05-26T01:22:46.169Z,0
2016-05-26T01:23:46.327Z,0
2016-05-26T01:24:46.378Z,0
2016-05-26T01:25:46.365Z,0
2016-05-26T01:26:46.383Z,0
2016-05-26T01:27:46.417Z,0
2016-05-26T01:28:46.435Z,0
2016-05-26T01:29:46.469Z,0
2016-05-26T01:30:46.503Z,0
2016-05-26T01:31:46.366Z,0
2016-05-26T01:32:46.243Z,0
2016-05-26T01:33:46.246Z,0
2016-05-26T01:34:46.420Z,0
2016-05-26T01:35:46.610Z,0
2016-05-26T01:36:46.660Z,0
2016-05-26T01:37:46.491Z,0
2016-05-26T01:38:46.526Z,0
2016-05-26T01:39:46.684Z,0
2016-05-26T01:40:46.718Z,0
2016-05-26T01:41:46.736Z,0
2016-05-26T01:42:46.754Z,0
2016-05-26T01:43:46.617Z,0
2016-05-26T01:44:46.806Z,0
2016-05-26T01:45:46.841Z,0
2016-05-26T01:46:46.702Z,0
2016-05-26T01:47:46.814Z,0
2016-05-26T01:48:46.895Z,0
2016-05-26T01:49:46.929Z,0
2016-05-26T01:50:46.963Z,0
2016-05-26T01:51:46.653Z,0
2016-05-26T01:52:47.016Z,0
2016-05-26T01:53:47.019Z,0
2016-05-26T01:54:47.036Z,0
2016-05-26T01:55:46.899Z,0
2016-05-26T01:56:47.089Z,0
2016-05-26T01:57:47.108Z,0
2016-05-26T01:58:47.126Z,0
2016-05-26T01:59:46.832Z,0
2016-05-26T02:00:47.162Z,0
2016-05-26T02:01:47.196Z,0
2016-05-26T02:02:47.965Z,0
2016-05-26T02:03:47.092Z,0
2016-05-26T02:04:46.954Z,0
2016-05-26T02:05:47.300Z,0
2016-05-26T02:06:47.163Z,0
2016-05-26T02:07:47.181Z,0
2016-05-26T02:08:47.215Z,0
2016-05-26T02:09:47.373Z,0
2016-05-26T02:10:47.408Z,0
2016-05-26T02:11:47.426Z,0
2016-05-26T02:12:47.288Z,0
2016-05-26T02:13:47.463Z,0
2016-05-26T02:14:47.497Z,0
2016-05-26T02:15:47.514Z,0
2016-05-26T02:16:47.549Z,0
2016-05-26T02:17:47.848Z,0
2016-05-26T02:18:47.586Z,0
2016-05-26T02:19:47.620Z,0
2016-05-26T02:20:47.481Z,0
2016-05-26T02:21:47.672Z,0
2016-05-26T02:22:47.691Z,0
2016-05-26T02:23:47.724Z,0
2016-05-26T02:24:47.586Z,0
2016-05-26T02:25:47.776Z,0
2016-05-26T02:26:47.763Z,0
2016-05-26T02:27:47.500Z,0
2016-05-26T02:28:47.674Z,0
2016-05-26T02:29:47.693Z,0
2016-05-26T02:30:47.868Z,0
2016-05-26T02:31:47.745Z,0
2016-05-26T02:32:47.842Z,0
2016-05-26T02:33:47.938Z,0
2016-05-26T02:34:47.988Z,0
2016-05-26T02:35:47.976Z,0
2016-05-26T02:36:47.993Z,0
2016-05-26T02:37:48.027Z,0
2016-05-26T02:38:48.046Z,0
2016-05-26T02:39:48.079Z,0
2016-05-26T02:40:48.098Z,0
2016-05-26T02:41:47.976Z,0
2016-05-26T02:42:48.150Z,0
2016-05-26T02:43:48.012Z,0
2016-05-26T02:44:48.187Z,0
2016-05-26T02:45:48.064Z,0
2016-05-26T02:46:48.130Z,0
2016-05-26T02:47:48.241Z,0
2016-05-26T02:48:48.056Z,0
2016-05-26T02:49:48.122Z,0
2016-05-26T02:50:48.374Z,0
2016-05-26T02:51:48.189Z,0
2016-05-26T02:52:48.396Z,0
2016-05-26T02:53:48.445Z,0
2016-05-26T02:54:48.277Z,0
2016-05-26T02:55:48.186Z,0
2016-05-26T02:56:48.468Z,0
2016-05-26T02:57:48.331Z,0
2016-05-26T02:58:48.522Z,0
2016-05-26T02:59:48.524Z,0
2016-05-26T03:00:48.543Z,0
2016-05-26T03:01:48.591Z,0
2016-05-26T03:02:49.110Z,0
2016-05-26T03:03:48.644Z,0
2016-05-26T03:04:48.662Z,0
2016-05-26T03:05:48.665Z,0
2016-05-26T03:06:48.684Z,0
2016-05-26T03:07:48.717Z,0
2016-05-26T03:08:48.752Z,0
2016-05-26T03:09:48.770Z,0
2016-05-26T03:10:48.772Z,0
2016-05-26T03:11:48.665Z,0
2016-05-26T03:12:48.825Z,0
2016-05-26T03:13:48.546Z,0
2016-05-26T03:14:48.877Z,0
2016-05-26T03:15:48.895Z,0
2016-05-26T03:16:48.929Z,0
2016-05-26T03:17:49.948Z,0
2016-05-26T03:18:48.809Z,0
2016-05-26T03:19:48.859Z,0
2016-05-26T03:20:48.861Z,0
2016-05-26T03:21:49.036Z,0
2016-05-26T03:22:48.742Z,0
2016-05-26T03:23:49.088Z,0
2016-05-26T03:24:49.107Z,0
2016-05-26T03:25:48.985Z,0
2016-05-26T03:26:49.158Z,0
2016-05-26T03:27:49.021Z,0
2016-05-26T03:28:49.039Z,0
2016-05-26T03:29:49.058Z,0
2016-05-26T03:30:49.107Z,0
2016-05-26T03:31:49.282Z,0
2016-05-26T03:32:49.457Z,0
2016-05-26T03:33:49.335Z,0
2016-05-26T03:34:49.337Z,0
2016-05-26T03:35:49.370Z,0
2016-05-26T03:36:49.233Z,0
2016-05-26T03:37:49.407Z,0
2016-05-26T03:38:49.441Z,0
2016-05-26T03:39:49.318Z,0
2016-05-26T03:40:49.478Z,0
2016-05-26T03:41:49.528Z,0
2016-05-26T03:42:49.514Z,0
2016-05-26T03:43:49.548Z,0
2016-05-26T03:44:49.411Z,0
2016-05-26T03:45:49.584Z,0
2016-05-26T03:46:49.619Z,0
2016-05-26T03:47:50.419Z,0
2016-05-26T03:48:49.500Z,0
2016-05-26T03:49:49.534Z,0
2016-05-26T03:50:49.708Z,0
2016-05-26T03:51:49.570Z,0
2016-05-26T03:52:49.744Z,0
2016-05-26T03:53:49.622Z,0
2016-05-26T03:54:49.641Z,0
2016-05-26T03:55:49.816Z,0
2016-05-26T03:56:49.708Z,0
2016-05-26T03:57:49.711Z,0
2016-05-26T03:58:49.885Z,0
2016-05-26T03:59:49.904Z,0
2016-05-26T04:00:49.938Z,0
2016-05-26T04:01:49.972Z,0
2016-05-26T04:02:50.302Z,0
2016-05-26T04:03:49.852Z,0
2016-05-26T04:04:50.027Z,0
2016-05-26T04:05:50.046Z,0
2016-05-26T04:06:49.923Z,0
2016-05-26T04:07:50.098Z,0
2016-05-26T04:08:50.116Z,0
2016-05-26T04:09:50.149Z,0
2016-05-26T04:10:50.027Z,0
2016-05-26T04:11:50.186Z,0
2016-05-26T04:12:50.220Z,0
2016-05-26T04:13:50.223Z,0
2016-05-26T04:14:50.273Z,0
2016-05-26T04:15:50.119Z,0
2016-05-26T04:16:50.309Z,0
2016-05-26T04:17:51.280Z,0
2016-05-26T04:18:50.362Z,0
2016-05-26T04:19:50.365Z,0
2016-05-26T04:20:50.397Z,0
2016-05-26T04:21:50.416Z,0
2016-05-26T04:22:50.434Z,0
2016-05-26T04:23:50.469Z,5
2016-05-26T04:24:50.487Z,5
2016-05-26T04:25:50.505Z,5
2016-05-26T04:26:50.539Z,5
2016-05-26T04:27:50.558Z,5
2016-05-26T04:28:50.575Z,5
2016-05-26T04:29:50.594Z,5
2016-05-26T04:30:50.628Z,5
2016-05-26T04:31:50.490Z,5
2016-05-26T04:32:51.680Z,5
2016-05-26T04:33:50.699Z,5
2016-05-26T04:34:50.701Z,5
2016-05-26T04:35:50.735Z,5
2016-05-26T04:36:50.768Z,5
2016-05-26T04:37:50.788Z,5
2016-05-26T04:38:50.838Z,5
2016-05-26T04:39:50.527Z,5
2016-05-26T04:40:50.702Z,5
2016-05-26T04:41:50.720Z,5
2016-05-26T04:42:50.910Z,5
2016-05-26T04:43:50.757Z,5
2016-05-26T04:44:50.947Z,5
2016-05-26T04:45:50.809Z,5
2016-05-26T04:46:50.984Z,5
2016-05-26T04:47:51.048Z,5
2016-05-26T04:48:51.036Z,5
2016-05-26T04:49:51.070Z,5
2016-05-26T04:50:51.088Z,5
2016-05-26T04:51:51.106Z,5
2016-05-26T04:52:50.984Z,5
2016-05-26T04:53:51.143Z,5
2016-05-26T04:54:51.021Z,5
2016-05-26T04:55:51.210Z,5
2016-05-26T04:56:51.073Z,5
2016-05-26T04:57:51.248Z,5
2016-05-26T04:58:51.297Z,10
2016-05-26T04:59:51.144Z,10
2016-05-26T05:00:51.161Z,10
2016-05-26T05:01:51.352Z,10
2016-05-26T05:02:51.386Z,10
2016-05-26T05:03:51.388Z,10
2016-05-26T05:04:51.266Z,10
2016-05-26T05:05:51.268Z,10
2016-05-26T05:06:51.287Z,10
2016-05-26T05:07:51.478Z,10
2016-05-26T05:08:51.512Z,15
2016-05-26T05:09:51.529Z,15
2016-05-26T05:10:51.548Z,15
2016-05-26T05:11:51.426Z,15
2016-05-26T05:12:51.601Z,15
2016-05-26T05:13:51.463Z,15
2016-05-26T05:14:51.653Z,15
2016-05-26T05:15:51.656Z,15
2016-05-26T05:16:51.690Z,15
2016-05-26T05:17:51.801Z,15
2016-05-26T05:18:51.756Z,15
2016-05-26T05:19:51.619Z,15
2016-05-26T05:20:51.622Z,15
2016-05-26T05:21:51.656Z,15
2016-05-26T05:22:54.845Z,15
2016-05-26T05:23:51.881Z,15
2016-05-26T05:24:51.742Z,15
2016-05-26T05:25:51.744Z,15
2016-05-26T05:26:51.935Z,15
2016-05-26T05:27:51.953Z,20
2016-05-26T05:28:51.831Z,20
2016-05-26T05:29:51.990Z,20
2016-05-26T05:30:52.024Z,20
2016-05-26T05:31:52.058Z,20
2016-05-26T05:32:53.358Z,20
2016-05-26T05:33:52.094Z,20
2016-05-26T05:34:52.113Z,20
2016-05-26T05:35:52.131Z,20
2016-05-26T05:36:52.149Z,20
2016-05-26T05:37:52.183Z,20
2016-05-26T05:38:52.045Z,20
2016-05-26T05:39:52.235Z,20
2016-05-26T05:40:52.254Z,20
2016-05-26T05:41:52.272Z,20
2016-05-26T05:42:52.290Z,20
2016-05-26T05:43:52.168Z,15
2016-05-26T05:44:52.342Z,15
2016-05-26T05:45:52.361Z,15
2016-05-26T05:46:52.239Z,15
2016-05-26T05:47:52.601Z,15
2016-05-26T05:48:52.791Z,15
2016-05-26T05:49:52.465Z,15
2016-05-26T05:50:52.484Z,15
2016-05-26T05:51:52.346Z,15
2016-05-26T05:52:52.536Z,15
2016-05-26T05:53:52.428Z,15
2016-05-26T05:54:52.431Z,15
2016-05-26T05:55:52.622Z,15
2016-05-26T05:56:52.469Z,15
2016-05-26T05:57:52.658Z,15
2016-05-26T05:58:52.661Z,15
2016-05-26T05:59:52.695Z,15
2016-05-26T06:00:52.729Z,15
2016-05-26T06:01:52.764Z,15
2016-05-26T06:02:52.797Z,15
2016-05-26T06:03:53.035Z,15
2016-05-26T06:04:52.522Z,15
2016-05-26T06:05:52.524Z,15
2016-05-26T06:06:52.871Z,15
2016-05-26T06:07:52.888Z,15
2016-05-26T06:08:53.094Z,15
2016-05-26T06:09:53.035Z,15
2016-05-26T06:10:52.647Z,15
2016-05-26T06:11:53.040Z,15
2016-05-26T06:12:53.012Z,15
2016-05-26T06:13:53.030Z,15
2016-05-26T06:14:52.907Z,15
2016-05-26T06:15:53.098Z,15
2016-05-26T06:16:53.100Z,15
2016-05-26T06:17:53.150Z,15
2016-05-26T06:18:53.029Z,20
2016-05-26T06:19:53.046Z,20
2016-05-26T06:20:53.206Z,20
2016-05-26T06:21:53.223Z,20
2016-05-26T06:22:53.351Z,20
2016-05-26T06:23:53.260Z,20
2016-05-26T06:24:53.294Z,20
2016-05-26T06:25:53.422Z,20
2016-05-26T06:26:53.190Z,25
2016-05-26T06:27:53.380Z,25
2016-05-26T06:28:53.398Z,25
2016-05-26T06:29:53.589Z,25
2016-05-26T06:30:53.310Z,25
2016-05-26T06:31:53.297Z,25
2016-05-26T06:32:53.519Z,30
2016-05-26T06:33:53.786Z,30
2016-05-26T06:34:53.524Z,30
2016-05-26T06:35:53.401Z,30
2016-05-26T06:36:53.576Z,30
2016-05-26T06:37:53.611Z,30
2016-05-26T06:38:53.472Z,30
2016-05-26T06:39:53.663Z,30
2016-05-26T06:40:53.680Z,30
2016-05-26T06:41:53.699Z,30
2016-05-26T06:42:53.733Z,30
2016-05-26T06:43:53.752Z,30
2016-05-26T06:44:53.785Z,30
2016-05-26T06:45:53.804Z,30
2016-05-26T06:46:54.026Z,30
2016-05-26T06:47:53.699Z,30
2016-05-26T06:48:53.859Z,30
2016-05-26T06:49:53.736Z,30
2016-05-26T06:50:53.770Z,30
2016-05-26T06:51:54.117Z,30
2016-05-26T06:52:53.807Z,30
2016-05-26T06:53:54.090Z,30
2016-05-26T06:54:54.124Z,30
2016-05-26T06:55:54.128Z,30
2016-05-26T06:56:53.989Z,30
2016-05-26T06:57:53.992Z,30
2016-05-26T06:58:54.151Z,30
2016-05-26T06:59:54.169Z,30
2016-05-26T07:00:54.063Z,30
2016-05-26T07:01:54.237Z,30
2016-05-26T07:02:54.397Z,30
2016-05-26T07:03:55.196Z,30
2016-05-26T07:04:54.277Z,30
2016-05-26T07:05:54.389Z,30
2016-05-26T07:06:54.282Z,30
2016-05-26T07:07:54.441Z,25
2016-05-26T07:08:54.443Z,25
2016-05-26T07:09:54.071Z,25
2016-05-26T07:10:54.465Z,25
2016-05-26T07:11:54.310Z,25
2016-05-26T07:12:54.470Z,25
2016-05-26T07:13:54.488Z,25
2016-05-26T07:14:54.507Z,25
2016-05-26T07:15:54.431Z,30
2016-05-26T07:16:54.418Z,30
2016-05-26T07:17:55.154Z,30
2016-05-26T07:18:55.049Z,30
2016-05-26T07:19:57.536Z,25
2016-05-26T07:20:54.773Z,30
2016-05-26T07:21:54.463Z,30
2016-05-26T07:22:54.622Z,30
2016-05-26T07:23:54.781Z,30
2016-05-26T07:24:54.987Z,30
2016-05-26T07:25:54.801Z,30
2016-05-26T07:26:54.976Z,30
2016-05-26T07:27:54.823Z,30
2016-05-26T07:28:54.544Z,30
2016-05-26T07:29:54.891Z,30
2016-05-26T07:30:55.049Z,30
2016-05-26T07:31:54.927Z,30
2016-05-26T07:32:55.664Z,30
2016-05-26T07:33:55.261Z,30
2016-05-26T07:34:54.997Z,25
2016-05-26T07:35:55.141Z,25
2016-05-26T07:36:55.049Z,25
2016-05-26T07:37:55.098Z,25
2016-05-26T07:38:55.267Z,25
2016-05-26T07:39:55.310Z,30
2016-05-26T07:40:55.353Z,30
2016-05-26T07:41:55.255Z,30
2016-05-26T07:42:55.415Z,30
2016-05-26T07:43:55.302Z,30
2016-05-26T07:44:55.485Z,30
2016-05-26T07:45:55.355Z,30
2016-05-26T07:46:55.398Z,30
2016-05-26T07:47:55.814Z,35
2016-05-26T07:48:55.412Z,35
2016-05-26T07:49:55.404Z,30
2016-05-26T07:50:55.582Z,30
2016-05-26T07:51:55.619Z,30
2016-05-26T07:52:55.655Z,30
2016-05-26T07:53:55.519Z,30
2016-05-26T07:54:55.709Z,35
2016-05-26T07:55:55.573Z,35
2016-05-26T07:56:55.749Z,40
2016-05-26T07:57:55.784Z,40
2016-05-26T07:58:55.817Z,40
2016-05-26T07:59:55.930Z,45
2016-05-26T08:00:55.793Z,50
2016-05-26T08:01:55.576Z,45
2016-05-26T08:02:55.861Z,45
2016-05-26T08:03:57.504Z,40
2016-05-26T08:04:56.147Z,40
2016-05-26T08:05:56.166Z,40
2016-05-26T08:06:56.169Z,40
2016-05-26T08:07:56.030Z,40
2016-05-26T08:08:56.189Z,40
2016-05-26T08:09:56.224Z,40
2016-05-26T08:10:56.242Z,40
2016-05-26T08:11:56.244Z,45
2016-05-26T08:12:56.247Z,45
2016-05-26T08:13:56.249Z,40
2016-05-26T08:14:56.112Z,35
2016-05-26T08:15:56.334Z,30
2016-05-26T08:16:56.352Z,30
2016-05-26T08:17:56.589Z,30
2016-05-26T08:18:56.966Z,30
2016-05-26T08:19:56.298Z,30
2016-05-26T08:20:56.097Z,30
2016-05-26T08:21:56.240Z,30
2016-05-26T08:22:56.445Z,30
2016-05-26T08:23:56.448Z,30
2016-05-26T08:24:56.483Z,35
2016-05-26T08:25:56.500Z,40
2016-05-26T08:26:56.378Z,40
2016-05-26T08:27:56.553Z,45
2016-05-26T08:28:56.586Z,45
2016-05-26T08:29:56.605Z,50
2016-05-26T08:30:56.624Z,50
2016-05-26T08:31:56.657Z,55
2016-05-26T08:32:56.691Z,50
2016-05-26T08:33:56.570Z,45
2016-05-26T08:34:56.587Z,40
2016-05-26T08:35:56.605Z,40
2016-05-26T08:36:56.499Z,40
2016-05-26T08:37:56.674Z,40
2016-05-26T08:38:56.849Z,40
2016-05-26T08:39:56.867Z,40
2016-05-26T08:40:56.915Z,35
2016-05-26T08:41:56.919Z,35
2016-05-26T08:42:56.860Z,35
2016-05-26T08:43:56.830Z,35
2016-05-26T08:44:56.943Z,35
2016-05-26T08:45:56.882Z,35
2016-05-26T08:46:57.792Z,35
2016-05-26T08:47:57.873Z,40
2016-05-26T08:48:57.001Z,40
2016-05-26T08:49:56.909Z,45
2016-05-26T08:50:57.068Z,45
2016-05-26T08:51:58.040Z,50
2016-05-26T08:52:57.308Z,50
2016-05-26T08:53:57.154Z,55
2016-05-26T08:54:57.391Z,55
2016-05-26T08:55:57.019Z,55
2016-05-26T08:56:57.444Z,55
2016-05-26T08:57:57.384Z,55
2016-05-26T08:58:57.464Z,55
2016-05-26T08:59:57.405Z,55
2016-05-26T09:00:57.439Z,50
2016-05-26T09:01:57.425Z,50
2016-05-26T09:02:57.506Z,50
2016-05-26T09:03:57.963Z,50
2016-05-26T09:04:57.543Z,55
2016-05-26T09:05:57.436Z,55
2016-05-26T09:06:57.596Z,50
2016-05-26T09:07:57.629Z,50
2016-05-26T09:08:57.679Z,50
2016-05-26T09:09:57.682Z,50
2016-05-26T09:10:57.402Z,50
2016-05-26T09:11:57.734Z,50
2016-05-26T09:12:57.690Z,50
2016-05-26T09:13:57.801Z,55
2016-05-26T09:14:57.820Z,55
2016-05-26T09:15:57.776Z,55
2016-05-26T09:16:57.966Z,55
2016-05-26T09:17:57.906Z,50
2016-05-26T09:18:58.112Z,50
2016-05-26T09:19:57.959Z,50
2016-05-26T09:20:57.992Z,50
2016-05-26T09:21:58.011Z,50
2016-05-26T09:22:58.045Z,50
2016-05-26T09:23:58.079Z,55
2016-05-26T09:24:58.191Z,60
2016-05-26T09:25:57.974Z,65
2016-05-26T09:26:58.150Z,60
2016-05-26T09:27:58.198Z,60
2016-05-26T09:28:58.217Z,55
2016-05-26T09:29:58.236Z,55
2016-05-26T09:30:58.332Z,55
2016-05-26T09:31:58.397Z,50
2016-05-26T09:32:58.181Z,55
2016-05-26T09:33:58.747Z,55
2016-05-26T09:34:58.374Z,50
2016-05-26T09:35:58.470Z,50
2016-05-26T09:36:58.551Z,50
2016-05-26T09:37:58.460Z,50
2016-05-26T09:38:58.494Z,50
2016-05-26T09:39:58.638Z,50
2016-05-26T09:40:58.562Z,55
2016-05-26T09:41:58.424Z,50
2016-05-26T09:42:58.614Z,50
2016-05-26T09:43:58.648Z,45
2016-05-26T09:44:58.510Z,45
2016-05-26T09:45:58.701Z,45
2016-05-26T09:46:58.735Z,40
2016-05-26T09:47:58.752Z,40
2016-05-26T09:48:58.974Z,35
2016-05-26T09:49:58.587Z,35
2016-05-26T09:50:58.839Z,35
2016-05-26T09:51:58.904Z,30
2016-05-26T09:52:58.984Z,30
2016-05-26T09:53:59.019Z,25
2016-05-26T09:54:58.959Z,30
2016-05-26T09:55:58.993Z,25
2016-05-26T09:56:58.933Z,25
2016-05-26T09:57:59.045Z,30
2016-05-26T09:58:58.923Z,25
2016-05-26T09:59:58.957Z,25
2016-05-26T10:00:59.209Z,30
2016-05-26T10:01:59.009Z,30
2016-05-26T10:02:59.042Z,35
2016-05-26T10:03:59.342Z,35
2016-05-26T10:04:59.423Z,35
2016-05-26T10:05:59.130Z,40
2016-05-26T10:06:59.366Z,50
2016-05-26T10:07:59.369Z,50
2016-05-26T10:08:59.372Z,55
2016-05-26T10:09:59.390Z,50
2016-05-26T10:10:59.299Z,50
2016-05-26T10:11:59.146Z,50
2016-05-26T10:12:59.336Z,50
2016-05-26T10:13:59.526Z,50
2016-05-26T10:14:59.560Z,55
2016-05-26T10:15:59.422Z,55
2016-05-26T10:16:59.596Z,65
2016-05-26T10:17:59.567Z,65
2016-05-26T10:18:59.508Z,60
2016-05-26T10:19:59.526Z,40
2016-05-26T10:20:59.404Z,40
2016-05-26T10:21:59.437Z,35
2016-05-26T10:22:59.878Z,35
2016-05-26T10:23:59.646Z,35
2016-05-26T10:24:59.681Z,40
2016-05-26T10:25:59.589Z,40
2016-05-26T10:26:59.826Z,40
2016-05-26T10:27:59.845Z,35
2016-05-26T10:29:00.129Z,35
2016-05-26T10:30:00.100Z,35
2016-05-26T10:31:00.181Z,40
2016-05-26T10:32:00.167Z,40
2016-05-26T10:33:00.077Z,40
2016-05-26T10:34:00.361Z,35
2016-05-26T10:35:00.113Z,35
2016-05-26T10:36:00.163Z,35
2016-05-26T10:37:00.274Z,40
2016-05-26T10:37:59.575Z,55
2016-05-26T10:38:59.936Z,65
2016-05-26T10:40:00.471Z,65
2016-05-26T10:41:00.364Z,70
2016-05-26T10:42:00.335Z,85
2016-05-26T10:43:00.213Z,75
2016-05-26T10:44:00.621Z,70
2016-05-26T10:45:00.484Z,70
2016-05-26T10:46:00.378Z,70
2016-05-26T10:47:00.490Z,65
2016-05-26T10:48:00.461Z,65
2016-05-26T10:49:00.573Z,65
2016-05-26T10:50:00.576Z,70
2016-05-26T10:51:00.546Z,80
2016-05-26T10:52:00.629Z,80
2016-05-26T10:53:00.771Z,80
2016-05-26T10:54:00.774Z,80
2016-05-26T10:55:00.823Z,85
2016-05-26T10:56:00.764Z,85
2016-05-26T10:57:00.875Z,90
2016-05-26T10:58:00.894Z,90
2016-05-26T10:59:00.897Z,90
2016-05-26T11:00:00.868Z,85
2016-05-26T11:01:00.964Z,80
2016-05-26T11:02:00.873Z,75
2016-05-26T11:03:00.970Z,70
2016-05-26T11:04:01.441Z,60
2016-05-26T11:05:00.881Z,55
2016-05-26T11:06:01.119Z,50
2016-05-26T11:07:01.184Z,50
2016-05-26T11:08:01.233Z,50
2016-05-26T11:09:01.002Z,50
2016-05-26T11:10:01.145Z,50
2016-05-26T11:11:01.210Z,45
2016-05-26T11:12:01.197Z,45
2016-05-26T11:13:01.294Z,45
2016-05-26T11:14:01.343Z,40
2016-05-26T11:15:01.346Z,40
2016-05-26T11:16:01.363Z,40
2016-05-26T11:17:01.413Z,40
2016-05-26T11:18:01.198Z,45
2016-05-26T11:19:01.701Z,45
2016-05-26T11:20:01.344Z,50
2016-05-26T11:21:01.534Z,50
2016-05-26T11:22:01.412Z,60
2016-05-26T11:23:01.602Z,65
2016-05-26T11:24:01.464Z,70
2016-05-26T11:25:01.748Z,75
2016-05-26T11:26:01.688Z,75
2016-05-26T11:27:01.722Z,70
2016-05-26T11:28:01.756Z,70
2016-05-26T11:29:01.805Z,70
2016-05-26T11:30:01.824Z,70
2016-05-26T11:31:01.858Z,75
2016-05-26T11:32:01.876Z,80
2016-05-26T11:33:01.909Z,80
2016-05-26T11:34:01.741Z,80
2016-05-26T11:35:01.978Z,85
2016-05-26T11:36:01.840Z,85
2016-05-26T11:37:02.030Z,85
2016-05-26T11:38:02.095Z,85
2016-05-26T11:39:01.630Z,80
2016-05-26T11:40:02.085Z,80
2016-05-26T11:41:02.244Z,85
2016-05-26T11:42:01.872Z,80
2016-05-26T11:43:02.125Z,75
2016-05-26T11:44:02.299Z,75
2016-05-26T11:45:02.302Z,75
2016-05-26T11:46:02.319Z,80
2016-05-26T11:47:02.432Z,80
2016-05-26T11:48:02.325Z,75
2016-05-26T11:49:02.844Z,70
2016-05-26T11:50:02.362Z,65
2016-05-26T11:51:02.380Z,65
2016-05-26T11:52:02.243Z,60
2016-05-26T11:53:02.543Z,60
2016-05-26T11:54:02.435Z,60
2016-05-26T11:55:02.610Z,60
2016-05-26T11:56:02.487Z,60
2016-05-26T11:57:02.429Z,55
2016-05-26T11:58:02.712Z,55
2016-05-26T11:59:02.573Z,50
2016-05-26T12:00:02.468Z,50
2016-05-26T12:01:02.814Z,50
2016-05-26T12:02:02.956Z,50
2016-05-26T12:03:02.803Z,55
2016-05-26T12:04:03.087Z,55
2016-05-26T12:05:02.840Z,60
2016-05-26T12:06:03.014Z,65
2016-05-26T12:07:02.830Z,65
2016-05-26T12:08:02.926Z,65
2016-05-26T12:09:02.944Z,70
2016-05-26T12:10:02.964Z,70
2016-05-26T12:11:02.966Z,70
2016-05-26T12:12:03.233Z,75
2016-05-26T12:13:03.174Z,70
2016-05-26T12:14:03.099Z,70
2016-05-26T12:15:03.352Z,70
2016-05-26T12:16:03.135Z,70
2016-05-26T12:17:03.325Z,70
2016-05-26T12:18:03.140Z,70
2016-05-26T12:19:03.252Z,75
2016-05-26T12:20:03.286Z,75
2016-05-26T12:21:03.430Z,75
2016-05-26T12:22:03.479Z,75
2016-05-26T12:23:03.607Z,80
2016-05-26T12:24:03.718Z,80
2016-05-26T12:25:03.582Z,75
2016-05-26T12:26:03.537Z,75
2016-05-26T12:27:03.570Z,70
2016-05-26T12:28:03.668Z,75
2016-05-26T12:29:03.389Z,75
2016-05-26T12:30:03.735Z,75
2016-05-26T12:31:03.707Z,70
2016-05-26T12:32:03.631Z,70
2016-05-26T12:33:03.775Z,65
2016-05-26T12:34:03.793Z,65
2016-05-26T12:35:03.734Z,65
2016-05-26T12:36:03.861Z,65
2016-05-26T12:37:03.785Z,65
2016-05-26T12:38:04.007Z,70
2016-05-26T12:39:03.854Z,70
2016-05-26T12:40:04.028Z,70
2016-05-26T12:41:04.078Z,70
2016-05-26T12:42:04.064Z,75
2016-05-26T12:43:03.989Z,80
2016-05-26T12:44:03.882Z,85
2016-05-26T12:45:04.073Z,85
2016-05-26T12:46:04.450Z,90
2016-05-26T12:47:04.125Z,85
2016-05-26T12:48:04.158Z,85
2016-05-26T12:49:04.802Z,85
2016-05-26T12:50:04.289Z,90
2016-05-26T12:51:04.401Z,85
2016-05-26T12:52:04.388Z,90
2016-05-26T12:53:04.329Z,95
2016-05-26T12:54:04.503Z,120
2016-05-26T12:55:04.505Z,95
2016-05-26T12:56:04.665Z,90
2016-05-26T12:57:04.433Z,85
2016-05-26T12:58:04.655Z,85
2016-05-26T12:59:04.532Z,85
2016-05-26T13:00:04.785Z,75
2016-05-26T13:01:04.569Z,75
2016-05-26T13:02:04.462Z,70
2016-05-26T13:03:05.215Z,65
2016-05-26T13:04:05.280Z,60
2016-05-26T13:05:04.814Z,50
2016-05-26T13:06:04.848Z,45
2016-05-26T13:07:05.023Z,40
2016-05-26T13:08:05.056Z,40
2016-05-26T13:09:05.012Z,35
2016-05-26T13:10:05.031Z,35
2016-05-26T13:11:05.190Z,35
2016-05-26T13:12:05.098Z,30
2016-05-26T13:13:05.226Z,30
2016-05-26T13:14:05.261Z,30
2016-05-26T13:15:05.403Z,30
2016-05-26T13:16:05.062Z,30
2016-05-26T13:17:05.252Z,30
2016-05-26T13:18:05.177Z,30
2016-05-26T13:19:05.414Z,35
2016-05-26T13:20:05.385Z,35
2016-05-26T13:21:05.404Z,35
2016-05-26T13:22:05.313Z,35
2016-05-26T13:23:05.487Z,40
2016-05-26T13:24:05.583Z,35
2016-05-26T13:25:05.571Z,35
2016-05-26T13:26:05.558Z,40
2016-05-26T13:27:05.638Z,40
2016-05-26T13:28:05.626Z,40
2016-05-26T13:29:05.597Z,40
2016-05-26T13:30:05.475Z,45
2016-05-26T13:31:05.806Z,50
2016-05-26T13:32:05.590Z,50
2016-05-26T13:33:05.343Z,50
2016-05-26T13:34:05.845Z,55
2016-05-26T13:35:05.863Z,60
2016-05-26T13:36:05.959Z,70
2016-05-26T13:37:05.823Z,70
2016-05-26T13:38:06.043Z,70
2016-05-26T13:39:06.077Z,75
2016-05-26T13:40:05.940Z,75
2016-05-26T13:41:05.895Z,75
2016-05-26T13:42:06.195Z,75
2016-05-26T13:43:06.447Z,70
2016-05-26T13:44:05.981Z,65
2016-05-26T13:45:06.031Z,65
2016-05-26T13:46:06.221Z,60
2016-05-26T13:47:06.083Z,60
2016-05-26T13:48:06.163Z,60
2016-05-26T13:49:06.557Z,60
2016-05-26T13:50:06.341Z,65
2016-05-26T13:51:06.266Z,65
2016-05-26T13:52:06.409Z,70
2016-05-26T13:53:06.443Z,75
2016-05-26T13:54:06.477Z,80
2016-05-26T13:55:06.511Z,85
2016-05-26T13:56:06.545Z,85
2016-05-26T13:57:06.751Z,85
2016-05-26T13:58:06.737Z,95
2016-05-26T13:59:06.694Z,90
2016-05-26T14:00:06.665Z,90
2016-05-26T14:01:06.699Z,115
2016-05-26T14:02:06.685Z,120
2016-05-26T14:03:06.626Z,120
2016-05-26T14:04:06.676Z,105
2016-05-26T14:05:06.851Z,95
2016-05-26T14:06:06.900Z,85
2016-05-26T14:07:06.981Z,80
2016-05-26T14:08:06.687Z,80
2016-05-26T14:09:06.815Z,80
2016-05-26T14:10:07.129Z,85
2016-05-26T14:11:06.898Z,80
2016-05-26T14:12:07.150Z,80
2016-05-26T14:13:06.950Z,85
2016-05-26T14:14:07.234Z,80
2016-05-26T14:15:07.220Z,85
2016-05-26T14:16:07.239Z,85
2016-05-26T14:17:07.241Z,75
2016-05-26T14:18:07.058Z,70
2016-05-26T14:19:07.653Z,65
2016-05-26T14:20:07.265Z,40
2016-05-26T14:21:07.268Z,45
2016-05-26T14:22:07.427Z,50
2016-05-26T14:23:07.305Z,60
2016-05-26T14:24:07.495Z,70
2016-05-26T14:25:07.529Z,80
2016-05-26T14:26:07.532Z,75
2016-05-26T14:27:07.347Z,80